MNL weather

Ninoy Aquino International Airport
Manila, Philippines

Public forecast

Using degrees Celsius for public forecast. Weather courtesy of forecast.io.

METAR (pilot weather report)

Retrieved 2018/02/25 05:00 UTC (29 minutes ago):

RPLL 250500Z 06009KT 010V080 9999 SCT023 BKN100 32/21 Q1011 NOSIG RMK A2985

TAF (pilot weather forecast)

Forecast is more than 12 hours old.

Retrieved 2018/02/24 00:00 UTC (1 day ago):

TAF RPLL 242300Z 2500/2606 07008KT 9999 FEW025 SCT300 TX31/2506Z TN25/2522Z TEMPO 2500/2506 06012KT FEW025 SCT100 BKN300 TEMPO 2506/2512 07010KT FEW025 BKN300